sensor_id;sensor_type;location;lat;lon;timestamp;pressure;altitude;pressure_sealevel;temperature;humidity
63691;BME280;49837;57.280;27.070;2022-11-15T04:09:53;100201.72;;;0.21;100.0
63691;BME280;49837;57.280;27.070;2022-11-15T04:10:53;100197.75;;;0.19;100.0
63691;BME280;49837;57.280;27.070;2022-11-15T04:11:53;100192.11;;;0.2;100.0
63691;BME280;49837;57.280;27.070;2022-11-15T04:12:54;100184.77;;;0.17;100.0
63691;BME280;49837;57.280;27.070;2022-11-15T04:13:54;100181.84;;;0.2;100.0
63691;BME280;49837;57.280;27.070;2022-11-15T04:14:54;100178.5;;;0.21;100.0
63691;BME280;49837;57.280;27.070;2022-11-15T04:15:55;100178.89;;;0.19;100.0
63691;BME280;49837;57.280;27.070;2022-11-15T04:16:55;100179.27;;;0.17;100.0
63691;BME280;49837;57.280;27.070;2022-11-15T04:17:56;100176.19;;;0.2;100.0
63691;BME280;49837;57.280;27.070;2022-11-15T04:18:56;100175.73;;;0.24;100.0
63691;BME280;49837;57.280;27.070;2022-11-15T04:19:56;100171.2;;;0.21;100.0
63691;BME280;49837;57.280;27.070;2022-11-15T04:20:56;100167.98;;;0.21;100.0
63691;BME280;49837;57.280;27.070;2022-11-15T04:21:57;100174.09;;;0.23;100.0
63691;BME280;49837;57.280;27.070;2022-11-15T04:22:58;100169.56;;;0.23;100.0
63691;BME280;49837;57.280;27.070;2022-11-15T04:23:57;100166.12;;;0.23;100.0
63691;BME280;49837;57.280;27.070;2022-11-15T04:24:57;100167.12;;;0.24;100.0
63691;BME280;49837;57.280;27.070;2022-11-15T04:26:03;100165.58;;;0.25;100.0
63691;BME280;49837;57.280;27.070;2022-11-15T04:27:02;100165.6;;;0.19;100.0
63691;BME280;49837;57.280;27.070;2022-11-15T04:28:02;100163.14;;;0.21;100.0
63691;BME280;49837;57.280;27.070;2022-11-15T04:29:02;100165.84;;;0.26;100.0
63691;BME280;49837;57.280;27.070;2022-11-15T04:30:03;100166.8;;;0.25;100.0
63691;BME280;49837;57.280;27.070;2022-11-15T04:31:03;100152.72;;;0.21;100.0
63691;BME280;49837;57.280;27.070;2022-11-15T04:32:05;100148.06;;;0.21;100.0
63691;BME280;49837;57.280;27.070;2022-11-15T04:33:04;100157.16;;;0.2;100.0
63691;BME280;49837;57.280;27.070;2022-11-15T04:34:04;100159.88;;;0.23;100.0
63691;BME280;49837;57.280;27.070;2022-11-15T04:35:05;100160.61;;;0.2;100.0
63691;BME280;49837;57.280;27.070;2022-11-15T04:36:05;100160.7;;;0.21;100.0
63691;BME280;49837;57.280;27.070;2022-11-15T04:37:05;100157.35;;;0.17;100.0
63691;BME280;49837;57.280;27.070;2022-11-15T04:38:07;100157.89;;;0.15;100.0
63691;BME280;49837;57.280;27.070;2022-11-15T04:39:06;100159.02;;;0.17;100.0
63691;BME280;49837;57.280;27.070;2022-11-15T04:40:07;100154.09;;;0.17;100.0
63691;BME280;49837;57.280;27.070;2022-11-15T04:41:07;100152.8;;;0.2;100.0
63691;BME280;49837;57.280;27.070;2022-11-15T04:42:07;100150.48;;;0.25;100.0
63691;BME280;49837;57.280;27.070;2022-11-15T04:43:07;100151.01;;;0.22;100.0
63691;BME280;49837;57.280;27.070;2022-11-15T04:44:08;100153.64;;;0.23;100.0
63691;BME280;49837;57.280;27.070;2022-11-15T04:45:09;100152.84;;;0.24;100.0
63691;BME280;49837;57.280;27.070;2022-11-15T04:46:08;100148.03;;;0.25;100.0
63691;BME280;49837;57.280;27.070;2022-11-15T04:47:08;100149.52;;;0.27;100.0
63691;BME280;49837;57.280;27.070;2022-11-15T04:48:09;100148.5;;;0.3;100.0
63691;BME280;49837;57.280;27.070;2022-11-15T04:49:09;100145.55;;;0.31;100.0
63691;BME280;49837;57.280;27.070;2022-11-15T04:50:10;100139.86;;;0.28;100.0
63691;BME280;49837;57.280;27.070;2022-11-15T04:51:10;100140.2;;;0.21;100.0
63691;BME280;49837;57.280;27.070;2022-11-15T04:52:10;100138.02;;;0.26;100.0
63691;BME280;49837;57.280;27.070;2022-11-15T04:53:11;100141.28;;;0.3;100.0
63691;BME280;49837;57.280;27.070;2022-11-15T04:54:11;100142.83;;;0.36;100.0
63691;BME280;49837;57.280;27.070;2022-11-15T04:55:12;100138.35;;;0.34;100.0
63691;BME280;49837;57.280;27.070;2022-11-15T04:56:12;100140.14;;;0.31;100.0
63691;BME280;49837;57.280;27.070;2022-11-15T04:57:12;100134.05;;;0.29;100.0
63691;BME280;49837;57.280;27.070;2022-11-15T04:58:12;100131.52;;;0.3;100.0
63691;BME280;49837;57.280;27.070;2022-11-15T04:59:13;100128.39;;;0.3;100.0
63691;BME280;49837;57.280;27.070;2022-11-15T05:00:15;100127.2;;;0.33;100.0
63691;BME280;49837;57.280;27.070;2022-11-15T05:01:14;100125.56;;;0.35;100.0
63691;BME280;49837;57.280;27.070;2022-11-15T05:02:14;100119.23;;;0.34;100.0
63691;BME280;49837;57.280;27.070;2022-11-15T05:03:14;100115.8;;;0.33;100.0
63691;BME280;49837;57.280;27.070;2022-11-15T05:04:14;100107.92;;;0.33;100.0
63691;BME280;49837;57.280;27.070;2022-11-15T05:05:15;100107.09;;;0.33;100.0
63691;BME280;49837;57.280;27.070;2022-11-15T05:06:15;100097.23;;;0.31;100.0
63691;BME280;49837;57.280;27.070;2022-11-15T05:07:16;100092.72;;;0.31;100.0
63691;BME280;49837;57.280;27.070;2022-11-15T05:08:16;100089.14;;;0.27;100.0
63691;BME280;49837;57.280;27.070;2022-11-15T05:09:17;100094.77;;;0.26;100.0
63691;BME280;49837;57.280;27.070;2022-11-15T05:10:17;100093.53;;;0.24;100.0
63691;BME280;49837;57.280;27.070;2022-11-15T05:11:17;100096.41;;;0.25;100.0
63691;BME280;49837;57.280;27.070;2022-11-15T05:12:17;100100.98;;;0.29;100.0
63691;BME280;49837;57.280;27.070;2022-11-15T05:13:18;100101.09;;;0.31;100.0
63691;BME280;49837;57.280;27.070;2022-11-15T05:14:18;100104.06;;;0.34;100.0
63691;BME280;49837;57.280;27.070;2022-11-15T05:15:19;100105.75;;;0.29;100.0
63691;BME280;49837;57.280;27.070;2022-11-15T05:16:19;100103.02;;;0.28;100.0
63691;BME280;49837;57.280;27.070;2022-11-15T05:17:19;100096.3;;;0.29;100.0
63691;BME280;49837;57.280;27.070;2022-11-15T05:18:20;100097.69;;;0.35;100.0
63691;BME280;49837;57.280;27.070;2022-11-15T05:19:20;100088.36;;;0.37;100.0
63691;BME280;49837;57.280;27.070;2022-11-15T05:20:20;100086.41;;;0.38;100.0
63691;BME280;49837;57.280;27.070;2022-11-15T05:21:22;100088.89;;;0.42;100.0
63691;BME280;49837;57.280;27.070;2022-11-15T05:22:21;100083.36;;;0.4;100.0
63691;BME280;49837;57.280;27.070;2022-11-15T05:23:21;100089.97;;;0.36;100.0
63691;BME280;49837;57.280;27.070;2022-11-15T05:24:22;100082.17;;;0.36;100.0
63691;BME280;49837;57.280;27.070;2022-11-15T05:25:23;100079.7;;;0.33;100.0
63691;BME280;49837;57.280;27.070;2022-11-15T05:26:22;100081.6;;;0.36;100.0
63691;BME280;49837;57.280;27.070;2022-11-15T05:27:23;100081.15;;;0.38;100.0
63691;BME280;49837;57.280;27.070;2022-11-15T05:28:23;100080.08;;;0.39;100.0
63691;BME280;49837;57.280;27.070;2022-11-15T05:29:23;100080.79;;;0.35;100.0
63691;BME280;49837;57.280;27.070;2022-11-15T05:30:24;100079.86;;;0.4;100.0
63691;BME280;49837;57.280;27.070;2022-11-15T05:31:25;100079.12;;;0.41;100.0
63691;BME280;49837;57.280;27.070;2022-11-15T05:32:24;100075.98;;;0.33;100.0
63691;BME280;49837;57.280;27.070;2022-11-15T05:33:25;100070.11;;;0.35;100.0
63691;BME280;49837;57.280;27.070;2022-11-15T05:34:25;100074.45;;;0.34;100.0
63691;BME280;49837;57.280;27.070;2022-11-15T05:35:30;100068.9;;;0.36;100.0
63691;BME280;49837;57.280;27.070;2022-11-15T05:36:41;100073.83;;;0.39;100.0
63691;BME280;49837;57.280;27.070;2022-11-15T05:37:30;100071.48;;;0.41;100.0
63691;BME280;49837;57.280;27.070;2022-11-15T05:38:31;100075.8;;;0.36;100.0
63691;BME280;49837;57.280;27.070;2022-11-15T05:39:31;100076.38;;;0.37;100.0
63691;BME280;49837;57.280;27.070;2022-11-15T05:40:32;100070.2;;;0.35;100.0
63691;BME280;49837;57.280;27.070;2022-11-15T05:41:41;100076.3;;;0.39;100.0
63691;BME280;49837;57.280;27.070;2022-11-15T05:42:37;100075.47;;;0.39;100.0
63691;BME280;49837;57.280;27.070;2022-11-15T05:43:37;100076.85;;;0.35;100.0
63691;BME280;49837;57.280;27.070;2022-11-15T05:44:40;100076.38;;;0.38;100.0
63691;BME280;49837;57.280;27.070;2022-11-15T05:45:40;100071.55;;;0.39;100.0
63691;BME280;49837;57.280;27.070;2022-11-15T05:46:41;100066.77;;;0.38;100.0
63691;BME280;49837;57.280;27.070;2022-11-15T05:47:41;100068.55;;;0.41;100.0
63691;BME280;49837;57.280;27.070;2022-11-15T05:48:45;100064.03;;;0.43;100.0
63691;BME280;49837;57.280;27.070;2022-11-15T05:49:47;100064.66;;;0.49;100.0
63691;BME280;49837;57.280;27.070;2022-11-15T05:50:48;100064.86;;;0.51;100.0
63691;BME280;49837;57.280;27.070;2022-11-15T05:51:48;100061.98;;;0.51;100.0
63691;BME280;49837;57.280;27.070;2022-11-15T05:52:48;100055.73;;;0.49;100.0
63691;BME280;49837;57.280;27.070;2022-11-15T05:53:48;100056.73;;;0.43;100.0
63691;BME280;49837;57.280;27.070;2022-11-15T05:54:49;100054.62;;;0.45;100.0
63691;BME280;49837;57.280;27.070;2022-11-15T05:55:48;100050.7;;;0.47;100.0
63691;BME280;49837;57.280;27.070;2022-11-15T05:56:49;100053.19;;;0.49;100.0
63691;BME280;49837;57.280;27.070;2022-11-15T05:57:49;100052.14;;;0.51;100.0
63691;BME280;49837;57.280;27.070;2022-11-15T05:58:50;100050.31;;;0.49;100.0
63691;BME280;49837;57.280;27.070;2022-11-15T05:59:50;100044.39;;;0.47;100.0
63691;BME280;49837;57.280;27.070;2022-11-15T06:00:50;100045.48;;;0.5;100.0
63691;BME280;49837;57.280;27.070;2022-11-15T06:01:51;100047.33;;;0.46;100.0
63691;BME280;49837;57.280;27.070;2022-11-15T06:02:51;100047.79;;;0.51;100.0
63691;BME280;49837;57.280;27.070;2022-11-15T06:03:51;100049.55;;;0.54;100.0
63691;BME280;49837;57.280;27.070;2022-11-15T06:04:52;100054.08;;;0.56;100.0
63691;BME280;49837;57.280;27.070;2022-11-15T06:05:52;100052.84;;;0.55;100.0
63691;BME280;49837;57.280;27.070;2022-11-15T06:06:52;100052.95;;;0.58;100.0
63691;BME280;49837;57.280;27.070;2022-11-15T06:07:57;100057.06;;;0.59;100.0
63691;BME280;49837;57.280;27.070;2022-11-15T06:08:55;100058.27;;;0.58;100.0
63691;BME280;49837;57.280;27.070;2022-11-15T06:09:56;100055.27;;;0.61;100.0
63691;BME280;49837;57.280;27.070;2022-11-15T06:10:56;100053.03;;;0.61;100.0
63691;BME280;49837;57.280;27.070;2022-11-15T06:11:56;100054.95;;;0.62;100.0
63691;BME280;49837;57.280;27.070;2022-11-15T06:13:00;100051.23;;;0.61;100.0
63691;BME280;49837;57.280;27.070;2022-11-15T06:13:58;100051.5;;;0.63;100.0
63691;BME280;49837;57.280;27.070;2022-11-15T06:14:59;100050.43;;;0.62;100.0
63691;BME280;49837;57.280;27.070;2022-11-15T06:16:00;100047.24;;;0.64;100.0
63691;BME280;49837;57.280;27.070;2022-11-15T06:17:00;100045.33;;;0.61;100.0
63691;BME280;49837;57.280;27.070;2022-11-15T06:18:01;100037.91;;;0.66;100.0
63691;BME280;49837;57.280;27.070;2022-11-15T06:19:01;100040.45;;;0.65;100.0
63691;BME280;49837;57.280;27.070;2022-11-15T06:20:02;100035.19;;;0.66;100.0
63691;BME280;49837;57.280;27.070;2022-11-15T06:21:02;100035.76;;;0.64;100.0
63691;BME280;49837;57.280;27.070;2022-11-15T06:22:02;100032.3;;;0.63;100.0
63691;BME280;49837;57.280;27.070;2022-11-15T06:23:03;100030.73;;;0.62;100.0
63691;BME280;49837;57.280;27.070;2022-11-15T06:24:03;100031.84;;;0.59;100.0
63691;BME280;49837;57.280;27.070;2022-11-15T06:25:04;100025.8;;;0.62;100.0
63691;BME280;49837;57.280;27.070;2022-11-15T06:26:04;100023.44;;;0.63;100.0
63691;BME280;49837;57.280;27.070;2022-11-15T06:27:04;100023.53;;;0.65;100.0
63691;BME280;49837;57.280;27.070;2022-11-15T06:28:04;100021.94;;;0.62;100.0
63691;BME280;49837;57.280;27.070;2022-11-15T06:29:05;100019.51;;;0.64;100.0
63691;BME280;49837;57.280;27.070;2022-11-15T06:30:05;100014.39;;;0.62;100.0
63691;BME280;49837;57.280;27.070;2022-11-15T06:31:07;100016.5;;;0.68;100.0
63691;BME280;49837;57.280;27.070;2022-11-15T06:32:05;100020.61;;;0.71;100.0
63691;BME280;49837;57.280;27.070;2022-11-15T06:33:06;100022.66;;;0.68;100.0
63691;BME280;49837;57.280;27.070;2022-11-15T06:34:06;100022.52;;;0.72;100.0
63691;BME280;49837;57.280;27.070;2022-11-15T06:35:07;100020.97;;;0.74;100.0
63691;BME280;49837;57.280;27.070;2022-11-15T06:36:09;100016.86;;;0.74;100.0
63691;BME280;49837;57.280;27.070;2022-11-15T06:37:08;100017.86;;;0.75;100.0
63691;BME280;49837;57.280;27.070;2022-11-15T06:38:10;100014.5;;;0.76;100.0
63691;BME280;49837;57.280;27.070;2022-11-15T06:39:09;100010.23;;;0.76;100.0
63691;BME280;49837;57.280;27.070;2022-11-15T06:40:10;100012.8;;;0.79;100.0
63691;BME280;49837;57.280;27.070;2022-11-15T06:41:11;100011.41;;;0.79;100.0
63691;BME280;49837;57.280;27.070;2022-11-15T06:42:10;100012.06;;;0.79;100.0
63691;BME280;49837;57.280;27.070;2022-11-15T06:43:11;100012.31;;;0.79;100.0
63691;BME280;49837;57.280;27.070;2022-11-15T06:44:11;100013.88;;;0.81;100.0
63691;BME280;49837;57.280;27.070;2022-11-15T06:45:11;100018.52;;;0.84;100.0
63691;BME280;49837;57.280;27.070;2022-11-15T06:46:12;100015.23;;;0.85;100.0
63691;BME280;49837;57.280;27.070;2022-11-15T06:47:12;100016.87;;;0.85;100.0
63691;BME280;49837;57.280;27.070;2022-11-15T06:48:12;100015.3;;;0.85;100.0
63691;BME280;49837;57.280;27.070;2022-11-15T06:49:13;100014.17;;;0.88;100.0
63691;BME280;49837;57.280;27.070;2022-11-15T06:50:14;100015.02;;;0.91;100.0
63691;BME280;49837;57.280;27.070;2022-11-15T06:51:13;100010.26;;;0.92;100.0
63691;BME280;49837;57.280;27.070;2022-11-15T06:52:14;100009.58;;;0.89;100.0
63691;BME280;49837;57.280;27.070;2022-11-15T06:53:14;100006.8;;;0.89;100.0
63691;BME280;49837;57.280;27.070;2022-11-15T06:54:14;100006.08;;;0.92;100.0
63691;BME280;49837;57.280;27.070;2022-11-15T06:55:15;100010.27;;;0.9;100.0
63691;BME280;49837;57.280;27.070;2022-11-15T06:56:15;100005.41;;;0.89;100.0
63691;BME280;49837;57.280;27.070;2022-11-15T06:57:16;100008.47;;;0.92;100.0
63691;BME280;49837;57.280;27.070;2022-11-15T06:58:16;100007.06;;;0.94;100.0
63691;BME280;49837;57.280;27.070;2022-11-15T06:59:16;100007.55;;;0.91;100.0
63691;BME280;49837;57.280;27.070;2022-11-15T07:00:18;99998.12;;;0.92;100.0
63691;BME280;49837;57.280;27.070;2022-11-15T07:01:17;99994.59;;;0.94;100.0
63691;BME280;49837;57.280;27.070;2022-11-15T07:02:17;99990.75;;;0.96;100.0
63691;BME280;49837;57.280;27.070;2022-11-15T07:03:18;99986.88;;;0.95;100.0
63691;BME280;49837;57.280;27.070;2022-11-15T07:04:18;99985.73;;;0.97;100.0
63691;BME280;49837;57.280;27.070;2022-11-15T07:05:18;99985.0;;;0.97;100.0
63691;BME280;49837;57.280;27.070;2022-11-15T07:06:19;99981.14;;;0.95;100.0
63691;BME280;49837;57.280;27.070;2022-11-15T07:07:19;99980.25;;;0.98;100.0
63691;BME280;49837;57.280;27.070;2022-11-15T07:08:20;99981.41;;;1.03;100.0
63691;BME280;49837;57.280;27.070;2022-11-15T07:09:20;99980.05;;;1.08;100.0
63691;BME280;49837;57.280;27.070;2022-11-15T07:10:21;99982.73;;;1.04;100.0
63691;BME280;49837;57.280;27.070;2022-11-15T07:11:21;99986.26;;;1.01;100.0
63691;BME280;49837;57.280;27.070;2022-11-15T07:12:21;99981.41;;;1.03;100.0
63691;BME280;49837;57.280;27.070;2022-11-15T07:13:24;99979.89;;;1.05;100.0
63691;BME280;49837;57.280;27.070;2022-11-15T07:14:22;99978.59;;;1.08;100.0
63691;BME280;49837;57.280;27.070;2022-11-15T07:15:25;99969.03;;;1.04;100.0
63691;BME280;49837;57.280;27.070;2022-11-15T07:16:23;99964.92;;;1.03;100.0
63691;BME280;49837;57.280;27.070;2022-11-15T07:17:23;99965.11;;;1.05;100.0
63691;BME280;49837;57.280;27.070;2022-11-15T07:18:24;99961.47;;;1.03;100.0
63691;BME280;49837;57.280;27.070;2022-11-15T07:19:24;99961.93;;;1.1;100.0
63691;BME280;49837;57.280;27.070;2022-11-15T07:20:24;99957.44;;;1.17;100.0
63691;BME280;49837;57.280;27.070;2022-11-15T07:21:25;99956.22;;;1.18;100.0
63691;BME280;49837;57.280;27.070;2022-11-15T07:22:25;99955.06;;;1.17;100.0
63691;BME280;49837;57.280;27.070;2022-11-15T07:23:26;99958.25;;;1.17;100.0
63691;BME280;49837;57.280;27.070;2022-11-15T07:24:26;99953.03;;;1.24;100.0
63691;BME280;49837;57.280;27.070;2022-11-15T07:25:26;99950.49;;;1.24;100.0
63691;BME280;49837;57.280;27.070;2022-11-15T07:26:27;99946.97;;;1.27;100.0
63691;BME280;49837;57.280;27.070;2022-11-15T07:27:27;99944.77;;;1.31;100.0
63691;BME280;49837;57.280;27.070;2022-11-15T07:28:27;99935.73;;;1.32;100.0
63691;BME280;49837;57.280;27.070;2022-11-15T07:29:28;99935.81;;;1.34;100.0
63691;BME280;49837;57.280;27.070;2022-11-15T07:30:28;99930.65;;;1.33;100.0
63691;BME280;49837;57.280;27.070;2022-11-15T07:31:28;99930.31;;;1.35;100.0
63691;BME280;49837;57.280;27.070;2022-11-15T07:32:29;99931.64;;;1.34;100.0
63691;BME280;49837;57.280;27.070;2022-11-15T07:33:29;99932.09;;;1.29;100.0
63691;BME280;49837;57.280;27.070;2022-11-15T07:34:29;99935.8;;;1.28;100.0
63691;BME280;49837;57.280;27.070;2022-11-15T07:35:30;99937.94;;;1.29;100.0
63691;BME280;49837;57.280;27.070;2022-11-15T07:36:30;99932.44;;;1.3;100.0
63691;BME280;49837;57.280;27.070;2022-11-15T07:37:30;99932.62;;;1.37;100.0
63691;BME280;49837;57.280;27.070;2022-11-15T07:38:31;99934.45;;;1.37;100.0
63691;BME280;49837;57.280;27.070;2022-11-15T07:39:32;99939.11;;;1.37;100.0
63691;BME280;49837;57.280;27.070;2022-11-15T07:40:32;99932.95;;;1.34;100.0
63691;BME280;49837;57.280;27.070;2022-11-15T07:41:33;99929.82;;;1.34;100.0
63691;BME280;49837;57.280;27.070;2022-11-15T07:42:33;99929.58;;;1.3;100.0
63691;BME280;49837;57.280;27.070;2022-11-15T07:43:33;99925.11;;;1.28;100.0
63691;BME280;49837;57.280;27.070;2022-11-15T07:44:34;99923.16;;;1.37;100.0
63691;BME280;49837;57.280;27.070;2022-11-15T07:45:40;99916.52;;;1.35;100.0
63691;BME280;49837;57.280;27.070;2022-11-15T07:46:39;99912.81;;;1.38;100.0
63691;BME280;49837;57.280;27.070;2022-11-15T07:47:39;99911.02;;;1.37;100.0
63691;BME280;49837;57.280;27.070;2022-11-15T07:48:39;99911.2;;;1.4;100.0
63691;BME280;49837;57.280;27.070;2022-11-15T07:49:41;99910.05;;;1.45;100.0
63691;BME280;49837;57.280;27.070;2022-11-15T07:50:42;99909.33;;;1.47;100.0
63691;BME280;49837;57.280;27.070;2022-11-15T07:51:42;99915.67;;;1.53;100.0
63691;BME280;49837;57.280;27.070;2022-11-15T07:52:43;99913.05;;;1.55;100.0
63691;BME280;49837;57.280;27.070;2022-11-15T07:53:43;99911.82;;;1.55;100.0
63691;BME280;49837;57.280;27.070;2022-11-15T07:54:43;99915.4;;;1.48;100.0
63691;BME280;49837;57.280;27.070;2022-11-15T07:55:44;99907.77;;;1.48;100.0
63691;BME280;49837;57.280;27.070;2022-11-15T07:56:44;99906.84;;;1.46;100.0
63691;BME280;49837;57.280;27.070;2022-11-15T07:57:45;99903.73;;;1.48;100.0
63691;BME280;49837;57.280;27.070;2022-11-15T07:58:45;99899.97;;;1.51;100.0
63691;BME280;49837;57.280;27.070;2022-11-15T07:59:45;99899.23;;;1.55;100.0
63691;BME280;49837;57.280;27.070;2022-11-15T08:00:45;99893.14;;;1.55;100.0
63691;BME280;49837;57.280;27.070;2022-11-15T08:01:46;99894.05;;;1.51;100.0
63691;BME280;49837;57.280;27.070;2022-11-15T08:02:46;99891.25;;;1.48;100.0
63691;BME280;49837;57.280;27.070;2022-11-15T08:03:46;99888.69;;;1.46;100.0
63691;BME280;49837;57.280;27.070;2022-11-15T08:04:47;99891.41;;;1.45;100.0
63691;BME280;49837;57.280;27.070;2022-11-15T08:05:50;99883.62;;;1.53;100.0
63691;BME280;49837;57.280;27.070;2022-11-15T08:06:48;99879.59;;;1.51;100.0
63691;BME280;49837;57.280;27.070;2022-11-15T08:07:49;99878.03;;;1.5;100.0
63691;BME280;49837;57.280;27.070;2022-11-15T08:08:49;99880.39;;;1.5;100.0
63691;BME280;49837;57.280;27.070;2022-11-15T08:09:49;99874.56;;;1.5;100.0
63691;BME280;49837;57.280;27.070;2022-11-15T08:10:50;99873.42;;;1.51;100.0
63691;BME280;49837;57.280;27.070;2022-11-15T08:11:50;99870.72;;;1.53;100.0
63691;BME280;49837;57.280;27.070;2022-11-15T08:13:00;99868.92;;;1.57;100.0
63691;BME280;49837;57.280;27.070;2022-11-15T08:13:54;99870.41;;;1.61;100.0
63691;BME280;49837;57.280;27.070;2022-11-15T08:14:55;99871.63;;;1.6;100.0
63691;BME280;49837;57.280;27.070;2022-11-15T08:15:59;99876.16;;;1.64;100.0
63691;BME280;49837;57.280;27.070;2022-11-15T08:16:58;99873.38;;;1.69;100.0
63691;BME280;49837;57.280;27.070;2022-11-15T08:18:01;99867.77;;;1.69;100.0
63691;BME280;49837;57.280;27.070;2022-11-15T08:18:59;99873.69;;;1.7;100.0
63691;BME280;49837;57.280;27.070;2022-11-15T08:20:00;99868.92;;;1.63;100.0
63691;BME280;49837;57.280;27.070;2022-11-15T08:21:00;99873.11;;;1.59;100.0
63691;BME280;49837;57.280;27.070;2022-11-15T08:22:00;99871.72;;;1.65;100.0
63691;BME280;49837;57.280;27.070;2022-11-15T08:23:02;99868.59;;;1.71;100.0
63691;BME280;49837;57.280;27.070;2022-11-15T08:24:01;99866.3;;;1.69;100.0
63691;BME280;49837;57.280;27.070;2022-11-15T08:25:01;99856.34;;;1.69;100.0
63691;BME280;49837;57.280;27.070;2022-11-15T08:26:03;99854.31;;;1.72;100.0
63691;BME280;49837;57.280;27.070;2022-11-15T08:27:02;99856.11;;;1.81;100.0
63691;BME280;49837;57.280;27.070;2022-11-15T08:28:04;99856.11;;;1.78;100.0
63691;BME280;49837;57.280;27.070;2022-11-15T08:29:03;99857.27;;;1.75;100.0
63691;BME280;49837;57.280;27.070;2022-11-15T08:30:04;99855.38;;;1.78;100.0
63691;BME280;49837;57.280;27.070;2022-11-15T08:31:04;99847.66;;;1.78;100.0
63691;BME280;49837;57.280;27.070;2022-11-15T08:32:04;99851.2;;;1.82;100.0
63691;BME280;49837;57.280;27.070;2022-11-15T08:33:04;99847.39;;;1.78;100.0
63691;BME280;49837;57.280;27.070;2022-11-15T08:34:05;99850.61;;;1.8;100.0
63691;BME280;49837;57.280;27.070;2022-11-15T08:35:06;99849.45;;;1.75;100.0
63691;BME280;49837;57.280;27.070;2022-11-15T08:36:06;99848.79;;;1.8;100.0
63691;BME280;49837;57.280;27.070;2022-11-15T08:37:06;99846.58;;;1.83;100.0
63691;BME280;49837;57.280;27.070;2022-11-15T08:38:06;99844.27;;;1.79;100.0
63691;BME280;49837;57.280;27.070;2022-11-15T08:39:10;99838.77;;;1.74;100.0
63691;BME280;49837;57.280;27.070;2022-11-15T08:40:09;99845.0;;;1.77;100.0
63691;BME280;49837;57.280;27.070;2022-11-15T08:41:11;99841.39;;;1.79;100.0
63691;BME280;49837;57.280;27.070;2022-11-15T08:42:11;99848.88;;;1.79;100.0
63691;BME280;49837;57.280;27.070;2022-11-15T08:43:15;99848.73;;;1.79;100.0
63691;BME280;49837;57.280;27.070;2022-11-15T08:44:16;99842.16;;;1.81;100.0
63691;BME280;49837;57.280;27.070;2022-11-15T08:45:16;99841.98;;;1.85;100.0
63691;BME280;49837;57.280;27.070;2022-11-15T08:46:16;99847.15;;;1.82;100.0
63691;BME280;49837;57.280;27.070;2022-11-15T08:47:17;99847.9;;;1.84;100.0
63691;BME280;49837;57.280;27.070;2022-11-15T08:48:17;99838.87;;;1.85;100.0
63691;BME280;49837;57.280;27.070;2022-11-15T08:49:18;99843.64;;;1.85;100.0
63691;BME280;49837;57.280;27.070;2022-11-15T08:50:19;99844.28;;;1.85;100.0
63691;BME280;49837;57.280;27.070;2022-11-15T08:51:19;99844.92;;;1.89;100.0
63691;BME280;49837;57.280;27.070;2022-11-15T08:52:19;99849.12;;;1.89;100.0
63691;BME280;49837;57.280;27.070;2022-11-15T08:53:19;99845.37;;;1.96;100.0
63691;BME280;49837;57.280;27.070;2022-11-15T08:54:19;99842.64;;;1.96;100.0
63691;BME280;49837;57.280;27.070;2022-11-15T08:55:20;99842.3;;;1.97;100.0
63691;BME280;49837;57.280;27.070;2022-11-15T08:56:21;99846.27;;;1.97;100.0
63691;BME280;49837;57.280;27.070;2022-11-15T08:57:21;99846.69;;;1.98;100.0
63691;BME280;49837;57.280;27.070;2022-11-15T08:58:22;99847.98;;;1.99;100.0
63691;BME280;49837;57.280;27.070;2022-11-15T08:59:22;99844.36;;;1.99;100.0
63691;BME280;49837;57.280;27.070;2022-11-15T09:00:22;99840.33;;;2.01;100.0
63691;BME280;49837;57.280;27.070;2022-11-15T09:01:22;99843.36;;;2.03;100.0
63691;BME280;49837;57.280;27.070;2022-11-15T09:02:23;99841.83;;;1.99;100.0
63691;BME280;49837;57.280;27.070;2022-11-15T09:03:24;99838.19;;;2.03;100.0
63691;BME280;49837;57.280;27.070;2022-11-15T09:04:24;99840.58;;;2.05;100.0
63691;BME280;49837;57.280;27.070;2022-11-15T09:05:24;99839.36;;;2.08;100.0
63691;BME280;49837;57.280;27.070;2022-11-15T09:06:24;99835.65;;;2.04;100.0
63691;BME280;49837;57.280;27.070;2022-11-15T09:07:25;99835.58;;;2.06;100.0
63691;BME280;49837;57.280;27.070;2022-11-15T09:08:29;99837.52;;;2.11;100.0
63691;BME280;49837;57.280;27.070;2022-11-15T09:09:29;99834.09;;;2.09;100.0
63691;BME280;49837;57.280;27.070;2022-11-15T09:10:30;99830.06;;;2.06;100.0
63691;BME280;49837;57.280;27.070;2022-11-15T09:11:30;99830.3;;;2.1;100.0
63691;BME280;49837;57.280;27.070;2022-11-15T09:12:30;99829.29;;;2.11;100.0
63691;BME280;49837;57.280;27.070;2022-11-15T09:13:31;99828.08;;;2.1;100.0
63691;BME280;49837;57.280;27.070;2022-11-15T09:14:31;99827.59;;;2.07;100.0
63691;BME280;49837;57.280;27.070;2022-11-15T09:15:31;99831.03;;;2.03;100.0
63691;BME280;49837;57.280;27.070;2022-11-15T09:16:32;99827.92;;;2.1;100.0
63691;BME280;49837;57.280;27.070;2022-11-15T09:17:32;99822.81;;;2.1;100.0
63691;BME280;49837;57.280;27.070;2022-11-15T09:18:32;99826.67;;;2.13;100.0
63691;BME280;49837;57.280;27.070;2022-11-15T09:19:33;99826.42;;;2.18;100.0
63691;BME280;49837;57.280;27.070;2022-11-15T09:20:33;99826.67;;;2.2;100.0
63691;BME280;49837;57.280;27.070;2022-11-15T09:21:33;99827.09;;;2.2;100.0
63691;BME280;49837;57.280;27.070;2022-11-15T09:22:34;99823.86;;;2.15;100.0
63691;BME280;49837;57.280;27.070;2022-11-15T09:23:34;99822.64;;;2.18;100.0
63691;BME280;49837;57.280;27.070;2022-11-15T09:24:35;99822.32;;;2.17;100.0
63691;BME280;49837;57.280;27.070;2022-11-15T09:25:35;99818.78;;;2.13;100.0
63691;BME280;49837;57.280;27.070;2022-11-15T09:26:35;99818.92;;;2.13;100.0
63691;BME280;49837;57.280;27.070;2022-11-15T09:27:36;99820.49;;;2.16;100.0
63691;BME280;49837;57.280;27.070;2022-11-15T09:28:36;99818.59;;;2.15;100.0